Hickory Regional Airport
KHKY : now visible

Airfield :











YOU CAN JOIN US ON...

 
LOGIN :

Register | Disclaimer

   EN    FR    IT 

 









Legend :    VFR   Marginal VFR   IFR   Intensive IFR   Very Intensive IFR
Visi :
Ceiling :
>= 8 km
>= 3000ft
5 to 8 km
1000 to 3000 ft
1500m to 5 km
500 to 1000 ft
800 to 1500m
200 to 500 ft
< 800m
< 200 ft
Symbols :   Thunderstorms  Fog  Heavy snow  Heavy precipitations  Wind > 20 kt






- Airport Elevation : 1190 ft
- IATA code : HKY


KHKY - Hickory Regional

CURRENT METAR :
  • 300853Z AUTO 03009G19KT 10SM FEW038 OVC055 13/08 A3011 RMK AO2 SLP179 T01330078 56016

EXPIRED METARs :
  • 300753Z AUTO 04013G22KT 10SM OVC050 13/08 A3012 RMK AO2 SLP184 T01330078

TAF KHKY
Valid from the 30 at 06:00 until the 01 at 06:00 UTC


300550Z 3006/0106 04011G20KT P6SM BKN060 BKN200
FM301400 03014G24KT P6SM OVC030
FM301600 03015G28KT 5SM SHRA BR OVC013
FM301800 02018G31KT 3SM SHRA BR OVC009 WS020/02050KT
FM010500 02014G24KT 3SM +SHRA BR OVC004
KZTL FIR / North America



MET'MAP, your aeronautical weather chart ! - Copyright ORBIFLY December 2007 - Disclaimer

ORBIFLY MET'MAP TEAM :

Programming & Development : Alexandra Zaïnal
Original concept : Baudouin d'Aumeries
Technical & hardware support : Manuel Goepfert
Assistance : Marc-Olivier Méhu




SOURCES & CREDITS :

   NOAA       Earth
Advisory